Time;durP1;ratioP1;P1;durP2;ratioP2;P2;SDS_P1;SDS_P2;PMS_P1;PMS_P2;Temp;Humidity;BMP_temperature;BMP_pressure;BME280_temperature;BME280_humidity;BME280_pressure;Samples;Min_cycle;Max_cycle;Signal;HPM_P1;HPM_P2
2022/12/29 00:06:03;;;;;;;0.20;0.10;;;12.20;99.90;;;;;;20981259;28;20421;-78
2022/12/29 00:16:08;;;;;;;0.20;0.10;;;11.70;99.90;;;;;;20963428;28;20406;-78
2022/12/29 00:36:40;;;;;;;0.20;0.10;;;11.90;99.90;;;;;;20978158;28;20745;-78
2022/12/29 00:46:45;;;;;;;0.20;0.10;;;12.10;99.90;;;;;;20978250;28;20418;-77
2022/12/29 00:56:51;;;;;;;0.20;0.08;;;10.20;99.90;;;;;;20960644;28;20418;-78
2022/12/29 01:06:56;;;;;;;0.20;0.10;;;9.40;99.90;;;;;;20961364;28;20390;-78
2022/12/29 01:17:00;;;;;;;0.20;0.10;;;8.80;99.90;;;;;;20971525;28;20402;-78
2022/12/29 01:27:05;;;;;;;0.20;0.10;;;8.70;99.90;;;;;;20994486;28;20409;-81
2022/12/29 01:37:10;;;;;;;0.20;0.10;;;8.80;99.90;;;;;;20995795;28;20413;-80
2022/12/29 01:47:19;;;;;;;0.20;0.10;;;8.70;99.90;;;;;;20994251;28;20405;-81
2022/12/29 01:57:28;;;;;;;0.20;0.10;;;8.80;99.90;;;;;;20992560;28;20525;-79
2022/12/29 02:07:34;;;;;;;0.20;0.10;;;8.90;99.90;;;;;;20991169;28;20495;-77
2022/12/29 02:17:54;;;;;;;0.20;0.10;;;8.90;99.90;;;;;;20989972;28;20399;-77
2022/12/29 02:28:27;;;;;;;0.20;0.00;;;8.80;99.90;;;;;;20988767;28;20485;-78
2022/12/29 02:38:46;;;;;;;0.20;0.10;;;9.10;99.90;;;;;;20987634;28;20539;-77
2022/12/29 02:48:56;;;;;;;0.20;0.10;;;9.20;99.90;;;;;;20988193;28;20745;-77
2022/12/29 02:59:02;;;;;;;0.20;0.10;;;9.00;99.90;;;;;;20985553;28;20559;-76
2022/12/29 03:09:15;;;;;;;0.20;0.10;;;9.00;99.90;;;;;;20968037;28;20417;-76
2022/12/29 03:19:27;;;;;;;0.20;0.10;;;8.60;99.90;;;;;;20984104;28;20441;-78
2022/12/29 03:29:34;;;;;;;0.20;0.10;;;8.60;99.90;;;;;;20966994;28;20421;-77
2022/12/29 03:39:39;;;;;;;0.20;0.10;;;9.40;99.90;;;;;;20948684;28;20500;-77
2022/12/29 03:49:43;;;;;;;0.20;0.10;;;9.70;99.90;;;;;;20965109;28;20393;-77
2022/12/29 03:59:48;;;;;;;0.20;0.10;;;9.60;99.90;;;;;;20982011;28;20420;-78
2022/12/29 04:09:52;;;;;;;0.20;0.10;;;9.60;99.90;;;;;;20981779;28;20409;-77
2022/12/29 04:20:59;;;;;;;0.20;0.00;;;9.90;99.90;;;;;;20963234;28;20441;-77
2022/12/29 04:30:21;;;;;;;0.20;0.10;;;9.10;99.90;;;;;;20962161;28;20869;-76
2022/12/29 04:40:27;;;;;;;0.20;0.10;;;8.50;99.90;;;;;;20979826;28;20762;-77
2022/12/29 04:50:30;;;;;;;0.20;0.10;;;8.50;99.90;;;;;;20979002;28;20409;-77
2022/12/29 05:00:36;;;;;;;0.20;0.10;;;8.60;99.90;;;;;;20960572;28;20526;-76
2022/12/29 05:10:39;;;;;;;0.20;0.10;;;8.20;99.90;;;;;;20977846;28;20421;-76
2022/12/29 05:20:44;;;;;;;0.20;0.10;;;8.50;99.90;;;;;;20977311;28;20840;-78
2022/12/29 05:30:49;;;;;;;0.20;0.10;;;8.30;99.90;;;;;;20974627;28;20784;-75
2022/12/29 05:40:55;;;;;;;0.20;0.10;;;8.40;99.90;;;;;;20957465;28;20390;-76
2022/12/29 05:50:58;;;;;;;0.20;0.10;;;8.20;99.90;;;;;;20975170;28;20410;-74
2022/12/29 06:01:03;;;;;;;0.20;0.10;;;8.30;99.90;;;;;;20944751;28;20442;-75
2022/12/29 06:11:07;;;;;;;0.20;0.10;;;8.40;99.90;;;;;;20955146;28;20390;-78
2022/12/29 06:21:12;;;;;;;0.20;0.10;;;8.10;99.90;;;;;;20989786;28;20459;-77
2022/12/29 06:31:16;;;;;;;0.20;0.10;;;8.10;99.90;;;;;;20972687;28;21007;-75
2022/12/29 06:41:22;;;;;;;0.20;0.10;;;8.30;99.90;;;;;;20971266;28;20417;-77
2022/12/29 06:51:34;;;;;;;0.20;0.10;;;8.40;99.90;;;;;;20968497;28;20448;-74
2022/12/29 07:01:39;;;;;;;0.20;0.10;;;8.30;99.90;;;;;;20986544;28;20428;-77
2022/12/29 07:11:44;;;;;;;0.20;0.10;;;8.70;99.90;;;;;;20983672;28;20387;-77
2022/12/29 07:21:49;;;;;;;0.20;0.10;;;8.20;99.90;;;;;;20982986;28;20398;-77
2022/12/29 07:31:52;;;;;;;0.20;0.10;;;8.50;99.90;;;;;;20966556;28;20398;-72
2022/12/29 07:41:58;;;;;;;0.20;0.10;;;8.80;99.90;;;;;;20948512;28;20406;-75
2022/12/29 07:52:19;;;;;;;0.20;0.00;;;9.00;99.90;;;;;;20963250;28;20397;-77
2022/12/29 08:02:25;;;;;;;0.20;0.10;;;9.40;99.90;;;;;;20980998;28;20912;-76
2022/12/29 08:12:30;;;;;;;0.20;0.10;;;9.60;99.90;;;;;;20963166;28;20485;-76
2022/12/29 08:22:35;;;;;;;0.20;0.10;;;10.20;99.90;;;;;;20962992;28;20410;-76
2022/12/29 08:32:39;;;;;;;0.20;0.10;;;10.50;99.90;;;;;;20960289;28;20401;-78
2022/12/29 08:42:45;;;;;;;0.20;0.10;;;10.80;99.90;;;;;;20979396;28;20393;-79
2022/12/29 08:52:48;;;;;;;0.20;0.10;;;11.20;99.90;;;;;;20985684;28;20394;-77
2022/12/29 09:03:12;;;;;;;0.20;0.10;;;12.00;99.90;;;;;;20961664;28;20437;-77
2022/12/29 09:13:17;;;;;;;0.20;0.10;;;13.00;99.90;;;;;;20975723;28;20909;-78
2022/12/29 09:23:22;;;;;;;0.20;0.10;;;13.60;99.90;;;;;;20960920;28;20451;-78
2022/12/29 09:33:27;;;;;;;0.20;0.10;;;13.90;99.90;;;;;;20944305;28;20444;-74
2022/12/29 09:43:50;;;;;;;0.20;0.10;;;14.60;99.90;;;;;;20960493;28;20479;-78
2022/12/29 09:53:59;;;;;;;0.20;0.10;;;14.70;99.90;;;;;;20975856;28;20406;-80
2022/12/29 10:04:24;;;;;;;0.20;0.10;;;15.00;99.90;;;;;;20976372;28;20509;-81
2022/12/29 10:14:48;;;;;;;0.20;0.10;;;15.40;99.90;;;;;;20979747;28;20402;-83
2022/12/29 10:24:56;;;;;;;0.20;0.10;;;15.90;99.90;;;;;;20973325;28;20393;-75
2022/12/29 10:35:05;;;;;;;0.20;0.00;;;16.40;99.90;;;;;;20971453;28;20464;-76
2022/12/29 10:45:15;;;;;;;0.20;0.08;;;16.30;99.90;;;;;;20968050;28;20410;-75
2022/12/29 10:55:27;;;;;;;0.20;0.00;;;16.40;99.90;;;;;;20989802;28;20501;-76
2022/12/29 11:05:38;;;;;;;0.20;0.00;;;17.10;99.90;;;;;;20965809;28;20441;-75
2022/12/29 11:15:44;;;;;;;0.20;0.00;;;17.90;99.90;;;;;;20964731;28;20414;-72
2022/12/29 11:26:07;;;;;;;0.20;0.00;;;18.40;99.90;;;;;;20948571;28;20397;-72
2022/12/29 11:36:16;;;;;;;0.20;0.00;;;19.70;99.90;;;;;;20982643;28;20425;-72
2022/12/29 11:46:25;;;;;;;0.20;0.10;;;19.80;99.90;;;;;;20963772;28;20412;-72
2022/12/29 11:56:37;;;;;;;0.20;0.10;;;19.50;99.90;;;;;;20979963;28;20401;-73
2022/12/29 12:06:49;;;;;;;0.20;0.00;;;20.30;99.90;;;;;;20945427;28;20413;-72
2022/12/29 12:16:56;;;;;;;0.20;0.10;;;19.80;99.90;;;;;;20961312;28;20513;-73
2022/12/29 12:27:10;;;;;;;0.20;0.00;;;20.00;99.90;;;;;;20979565;28;20406;-73
2022/12/29 12:37:41;;;;;;;0.20;0.00;;;19.80;99.90;;;;;;20959266;28;20531;-72
2022/12/29 12:48:00;;;;;;;0.20;0.00;;;19.70;99.90;;;;;;20942689;28;20418;-71
2022/12/29 12:58:13;;;;;;;0.20;0.10;;;19.30;99.90;;;;;;20958942;28;20417;-72
2022/12/29 13:08:37;;;;;;;0.20;0.00;;;19.10;99.90;;;;;;20978104;28;20833;-72
2022/12/29 13:18:49;;;;;;;0.20;0.00;;;20.00;99.90;;;;;;20993607;28;20402;-71
2022/12/29 13:29:00;;;;;;;0.20;0.00;;;20.30;99.90;;;;;;20976317;28;20995;-73
2022/12/29 13:49:34;;;;;;;0.20;0.00;;;19.10;99.90;;;;;;20992148;28;20410;-73
2022/12/29 13:59:49;;;;;;;0.20;0.00;;;19.10;99.90;;;;;;20973044;28;20414;-75
2022/12/29 14:09:56;;;;;;;0.20;0.00;;;19.40;99.90;;;;;;20954188;28;20753;-73
2022/12/29 14:20:00;;;;;;;0.20;0.10;;;18.90;99.90;;;;;;20951107;28;20410;-74
2022/12/29 14:30:27;;;;;;;0.20;0.00;;;18.40;99.90;;;;;;20968795;28;20402;-75
2022/12/29 14:40:49;;;;;;;0.20;0.00;;;18.30;99.90;;;;;;20969925;28;20547;-74
2022/12/29 14:50:54;;;;;;;0.20;0.10;;;18.00;99.90;;;;;;20969649;28;20505;-73
2022/12/29 15:00:59;;;;;;;0.20;0.10;;;17.90;99.90;;;;;;20947173;28;20416;-73
2022/12/29 15:11:12;;;;;;;0.20;0.10;;;17.70;99.90;;;;;;20977910;28;20497;-73
2022/12/29 15:21:17;;;;;;;0.20;0.10;;;17.50;99.90;;;;;;20981155;28;20414;-75
2022/12/29 15:31:25;;;;;;;0.20;0.10;;;17.20;99.90;;;;;;20980044;28;20872;-74
2022/12/29 15:52:00;;;;;;;0.20;0.00;;;18.20;99.90;;;;;;20958631;28;20390;-75
2022/12/29 16:02:10;;;;;;;0.20;0.00;;;17.70;99.90;;;;;;20976436;28;20501;-74
2022/12/29 16:12:20;;;;;;;0.20;0.00;;;17.00;99.90;;;;;;20958238;28;20455;-75
2022/12/29 16:22:29;;;;;;;0.20;0.00;;;16.60;99.90;;;;;;20975985;28;20460;-73
2022/12/29 16:32:35;;;;;;;0.20;0.00;;;16.30;99.90;;;;;;20975681;28;20402;-75
2022/12/29 16:42:47;;;;;;;0.20;0.10;;;16.20;99.90;;;;;;20959161;28;20414;-74
2022/12/29 16:52:56;;;;;;;0.20;0.10;;;16.10;99.90;;;;;;20972371;28;20406;-75
2022/12/29 17:03:01;;;;;;;0.20;0.00;;;15.90;99.90;;;;;;20958023;28;20413;-75
2022/12/29 17:13:08;;;;;;;0.20;0.10;;;16.40;99.90;;;;;;20955153;28;20406;-72
2022/12/29 17:23:16;;;;;;;0.20;0.10;;;16.30;99.90;;;;;;20958202;28;20522;-71
2022/12/29 17:33:35;;;;;;;0.20;0.10;;;16.30;99.90;;;;;;20974984;28;20413;-72
2022/12/29 17:43:39;;;;;;;0.20;0.10;;;16.20;99.90;;;;;;20957262;28;20402;-72
2022/12/29 17:53:44;;;;;;;0.20;0.10;;;15.80;99.90;;;;;;20957332;28;20406;-72
2022/12/29 18:03:48;;;;;;;0.20;0.10;;;15.80;99.90;;;;;;20955276;28;20468;-72
2022/12/29 18:13:54;;;;;;;0.20;0.10;;;15.70;99.90;;;;;;20988431;28;20394;-71
2022/12/29 18:23:58;;;;;;;0.20;0.10;;;15.60;99.90;;;;;;20988472;28;20440;-72
2022/12/29 18:34:13;;;;;;;0.20;0.10;;;15.90;99.90;;;;;;20970375;28;20911;-70
2022/12/29 18:44:16;;;;;;;0.20;0.00;;;16.10;99.90;;;;;;20976659;28;20416;-71
2022/12/29 18:54:28;;;;;;;0.20;0.10;;;16.20;99.90;;;;;;20963018;28;20406;-72
2022/12/29 19:04:32;;;;;;;0.20;0.03;;;16.00;99.90;;;;;;20962336;28;20394;-72
2022/12/29 19:14:37;;;;;;;0.20;0.00;;;16.00;99.90;;;;;;20961512;28;20405;-74
2022/12/29 19:24:58;;;;;;;0.20;0.10;;;15.70;99.90;;;;;;20979843;28;20409;-71
2022/12/29 19:35:04;;;;;;;0.20;0.10;;;15.60;99.90;;;;;;20978922;28;20468;-72
2022/12/29 19:45:09;;;;;;;0.20;0.00;;;15.80;99.90;;;;;;20959789;28;20848;-72
2022/12/29 19:55:16;;;;;;;0.20;0.00;;;15.80;99.90;;;;;;20977049;28;20489;-71
2022/12/29 20:05:20;;;;;;;0.20;0.00;;;15.70;99.90;;;;;;20976787;28;20524;-71
2022/12/29 20:15:25;;;;;;;0.20;0.10;;;15.70;99.90;;;;;;20973767;28;20505;-72
2022/12/29 20:25:29;;;;;;;0.20;0.10;;;15.60;99.90;;;;;;20939274;28;20424;-72
2022/12/29 20:35:51;;;;;;;0.20;0.10;;;15.50;99.90;;;;;;20955382;28;20505;-71
2022/12/29 20:45:55;;;;;;;0.20;0.10;;;15.30;99.90;;;;;;20974589;28;20406;-71
2022/12/29 20:56:04;;;;;;;0.30;0.30;;;14.90;99.90;;;;;;20956595;28;20518;-71
2022/12/29 21:06:09;;;;;;;0.20;0.10;;;14.50;99.90;;;;;;20971662;28;20405;-72
2022/12/29 21:16:17;;;;;;;0.20;0.10;;;15.00;99.90;;;;;;20972748;28;20952;-73
2022/12/29 21:26:25;;;;;;;0.20;0.10;;;14.90;99.90;;;;;;20972803;28;20390;-73
2022/12/29 21:36:31;;;;;;;0.20;0.00;;;14.80;99.90;;;;;;20921599;28;20410;-73
2022/12/29 21:46:37;;;;;;;0.20;0.10;;;14.90;99.90;;;;;;20990327;28;20417;-73
2022/12/29 21:56:44;;;;;;;0.20;0.10;;;14.20;99.90;;;;;;20990026;28;20432;-73
2022/12/29 22:17:11;;;;;;;0.20;0.10;;;14.60;99.90;;;;;;20988732;28;20414;-74
2022/12/29 22:27:16;;;;;;;0.20;0.00;;;14.30;99.90;;;;;;20990678;28;20398;-72
2022/12/29 22:37:22;;;;;;;0.20;0.07;;;15.00;99.90;;;;;;20957608;28;20463;-73
2022/12/29 22:47:45;;;;;;;0.20;0.10;;;15.20;99.90;;;;;;20936333;28;20408;-72
2022/12/29 22:57:50;;;;;;;0.20;0.00;;;15.00;99.90;;;;;;20887647;28;20408;-72
2022/12/29 23:07:53;;;;;;;0.20;0.10;;;15.00;99.90;;;;;;20886269;28;20412;-71
2022/12/29 23:17:59;;;;;;;0.20;0.10;;;14.90;99.90;;;;;;20918126;28;20410;-72
2022/12/29 23:28:02;;;;;;;0.20;0.00;;;15.00;99.90;;;;;;20967193;28;20417;-72
2022/12/29 23:38:07;;;;;;;0.20;0.10;;;14.80;99.90;;;;;;20983278;28;20406;-71
2022/12/29 23:48:12;;;;;;;0.20;0.10;;;14.60;99.90;;;;;;20983106;28;20410;-71
2022/12/29 23:58:17;;;;;;;0.20;0.10;;;14.30;99.90;;;;;;20964957;28;21143;-72
